Terminal Aerodrome Forecast
Issued by NWS Wilmington, OH

Current Version | Previous Version | Text Only | Print | Product List | Glossary Off
Versions: 1 2 3 4 5 6 7 8 9 10 11 12 13 14 15 16

000
FTUS41 KILN 092048 AAA
TAFCMH
TAF AMD
KCMH 092048Z 0921/1018 23012KT 2SM -SN BKN023 OVC035
      TEMPO 0921/0922 1SM -SN BR OVC015
     FM092300 27010G18KT 2SM -SHSN OVC015
     FM100200 27012G22KT P6SM VCSH OVC015
     FM100600 28010G20KT P6SM BKN022
     FM101000 28010KT P6SM BKN022
     FM101300 25008KT P6SM SCT025 BKN200
     FM101600 24012KT P6SM BKN080=

USA.gov is the U.S. government's official web portal to all federal, state and local government web resources and services.